Time;durP1;ratioP1;P1;durP2;ratioP2;P2;SDS_P1;SDS_P2;PMS_P1;PMS_P2;Temp;Humidity;BMP_temperature;BMP_pressure;BME280_temperature;BME280_humidity;BME280_pressure;Samples;Min_cycle;Max_cycle;Signal;HPM_P1;HPM_P2
2023/03/08 00:01:57;;;;;;;2.33;1.00;;;;;;;;;;4994349;28;20057;-66
2023/03/08 00:04:25;;;;;;;4.78;1.42;;;;;;;;;;4991090;28;20058;-66
2023/03/08 00:06:54;;;;;;;2.15;1.08;;;;;;;;;;4979426;28;20053;-67
2023/03/08 00:09:20;;;;;;;3.05;1.05;;;;;;;;;;4988540;28;20053;-64
2023/03/08 00:11:47;;;;;;;3.08;1.23;;;;;;;;;;4987226;28;20192;-65
2023/03/08 00:14:13;;;;;;;4.57;1.48;;;;;;;;;;4992646;28;20053;-66
2023/03/08 00:16:40;;;;;;;5.05;1.60;;;;;;;;;;4992469;28;20069;-66
2023/03/08 00:19:06;;;;;;;2.22;1.00;;;;;;;;;;4957421;28;20486;-66
2023/03/08 00:21:34;;;;;;;2.13;1.20;;;;;;;;;;4938770;28;20137;-65
2023/03/08 00:24:04;;;;;;;2.65;1.33;;;;;;;;;;4976956;28;20142;-66
2023/03/08 00:26:31;;;;;;;2.88;1.20;;;;;;;;;;4989560;28;20088;-65
2023/03/08 00:28:57;;;;;;;3.95;1.40;;;;;;;;;;4990918;28;20197;-65
2023/03/08 00:31:24;;;;;;;3.53;1.42;;;;;;;;;;4968381;28;20133;-64
2023/03/08 00:33:52;;;;;;;4.55;1.70;;;;;;;;;;4983759;28;20054;-66
2023/03/08 00:36:19;;;;;;;5.05;2.20;;;;;;;;;;4983422;28;20148;-65
2023/03/08 00:38:49;;;;;;;4.35;1.90;;;;;;;;;;4991192;28;20081;-65
2023/03/08 00:41:16;;;;;;;4.95;1.70;;;;;;;;;;4926093;28;20054;-65
2023/03/08 00:43:43;;;;;;;5.75;2.15;;;;;;;;;;4992657;28;20135;-65
2023/03/08 00:46:09;;;;;;;5.32;2.42;;;;;;;;;;4967763;28;20054;-66
2023/03/08 00:48:36;;;;;;;7.65;2.33;;;;;;;;;;4995043;28;20065;-65
2023/03/08 00:51:03;;;;;;;4.30;1.67;;;;;;;;;;4954693;28;20478;-66
2023/03/08 00:53:29;;;;;;;5.07;1.77;;;;;;;;;;4994446;28;20061;-66
2023/03/08 00:55:59;;;;;;;5.50;1.80;;;;;;;;;;4993969;28;20081;-66
2023/03/08 00:58:26;;;;;;;4.13;2.15;;;;;;;;;;4967904;28;20405;-64
2023/03/08 01:00:55;;;;;;;7.30;2.38;;;;;;;;;;4945855;28;20045;-66
2023/03/08 01:03:23;;;;;;;5.35;2.10;;;;;;;;;;4996896;28;20149;-65
2023/03/08 01:05:50;;;;;;;3.42;1.77;;;;;;;;;;5011446;28;20053;-65
2023/03/08 01:08:17;;;;;;;4.73;2.20;;;;;;;;;;4978395;28;20607;-64
2023/03/08 01:10:47;;;;;;;5.18;2.13;;;;;;;;;;4974551;28;20054;-65
2023/03/08 01:13:15;;;;;;;8.18;2.17;;;;;;;;;;4977233;28;20073;-65
2023/03/08 01:15:43;;;;;;;5.13;2.17;;;;;;;;;;4983967;28;20149;-65
2023/03/08 01:18:09;;;;;;;6.43;2.53;;;;;;;;;;4989721;28;20092;-65
2023/03/08 01:20:36;;;;;;;5.70;2.05;;;;;;;;;;4992974;28;20153;-66
2023/03/08 01:23:03;;;;;;;6.65;2.70;;;;;;;;;;4974500;28;20321;-65
2023/03/08 01:25:31;;;;;;;5.22;2.25;;;;;;;;;;4976400;28;20101;-65
2023/03/08 01:27:58;;;;;;;6.32;2.65;;;;;;;;;;4977257;28;20287;-66
2023/03/08 01:30:25;;;;;;;6.53;2.35;;;;;;;;;;4993761;28;20703;-66
2023/03/08 01:32:53;;;;;;;4.67;2.20;;;;;;;;;;4970641;28;20123;-66
2023/03/08 01:35:20;;;;;;;5.28;2.50;;;;;;;;;;4985480;28;20312;-66
2023/03/08 01:37:46;;;;;;;6.15;2.55;;;;;;;;;;4994096;28;20089;-65
2023/03/08 01:40:14;;;;;;;7.95;3.13;;;;;;;;;;4992498;28;20062;-66
2023/03/08 01:42:41;;;;;;;7.43;2.70;;;;;;;;;;4966078;28;20068;-66
2023/03/08 01:45:22;;;;;;;8.18;2.97;;;;;;;;;;4983723;28;20089;-66
2023/03/08 01:47:50;;;;;;;9.82;3.08;;;;;;;;;;4993139;28;20054;-66
2023/03/08 01:50:17;;;;;;;6.70;2.95;;;;;;;;;;4959825;28;20109;-66
2023/03/08 01:52:47;;;;;;;8.23;3.22;;;;;;;;;;5002383;28;20136;-67
2023/03/08 01:55:15;;;;;;;7.63;3.10;;;;;;;;;;4982839;28;20053;-66
2023/03/08 01:57:44;;;;;;;7.50;2.92;;;;;;;;;;4996295;28;20054;-67
2023/03/08 02:00:10;;;;;;;;;;;;;;;;;;4976036;28;20546;-66
2023/03/08 02:02:40;;;;;;;5.47;2.28;;;;;;;;;;4984947;28;19932;-66
2023/03/08 02:05:12;;;;;;;6.82;3.15;;;;;;;;;;4967849;28;20050;-65
2023/03/08 02:07:39;;;;;;;6.40;2.78;;;;;;;;;;4977028;28;20054;-65
2023/03/08 02:10:06;;;;;;;8.13;3.05;;;;;;;;;;4982456;28;20072;-65
2023/03/08 02:12:32;;;;;;;7.55;3.20;;;;;;;;;;4971492;28;20069;-66
2023/03/08 02:14:59;;;;;;;6.68;2.92;;;;;;;;;;4984133;28;20468;-66
2023/03/08 02:17:27;;;;;;;7.75;3.22;;;;;;;;;;4972532;28;20061;-67
2023/03/08 02:19:55;;;;;;;7.10;3.40;;;;;;;;;;4980933;28;20061;-67
2023/03/08 02:22:24;;;;;;;7.68;3.53;;;;;;;;;;4970051;28;20058;-67
2023/03/08 02:24:51;;;;;;;7.50;3.28;;;;;;;;;;4980354;28;20065;-67
2023/03/08 02:27:20;;;;;;;8.88;3.75;;;;;;;;;;4991391;28;20062;-66
2023/03/08 02:29:46;;;;;;;7.93;3.08;;;;;;;;;;4992599;28;20058;-66
2023/03/08 02:32:14;;;;;;;11.13;3.17;;;;;;;;;;4980581;28;20060;-67
2023/03/08 02:34:41;;;;;;;7.75;3.30;;;;;;;;;;4978371;28;20058;-67
2023/03/08 02:37:07;;;;;;;7.43;3.17;;;;;;;;;;4977713;28;20108;-65
2023/03/08 02:39:34;;;;;;;6.65;3.15;;;;;;;;;;5008268;28;20061;-67
2023/03/08 02:42:02;;;;;;;8.68;3.22;;;;;;;;;;4973057;28;20113;-66
2023/03/08 02:44:28;;;;;;;9.98;3.95;;;;;;;;;;4986368;28;20136;-65
2023/03/08 02:46:55;;;;;;;7.90;3.38;;;;;;;;;;4974568;28;20125;-67
2023/03/08 02:49:21;;;;;;;8.10;3.65;;;;;;;;;;4982593;28;20088;-64
2023/03/08 02:51:50;;;;;;;7.05;3.47;;;;;;;;;;4961680;28;20066;-66
2023/03/08 02:54:19;;;;;;;8.88;3.42;;;;;;;;;;4974822;28;20061;-66
2023/03/08 02:56:48;;;;;;;7.25;3.33;;;;;;;;;;4979967;28;20058;-66
2023/03/08 02:59:16;;;;;;;8.98;3.88;;;;;;;;;;4979464;28;20200;-65
2023/03/08 03:01:42;;;;;;;10.15;4.03;;;;;;;;;;4985715;28;20093;-65
2023/03/08 03:04:09;;;;;;;7.88;3.47;;;;;;;;;;4934275;28;20116;-65
2023/03/08 03:06:35;;;;;;;9.38;4.05;;;;;;;;;;4993024;28;20132;-66
2023/03/08 03:09:05;;;;;;;6.85;3.55;;;;;;;;;;4938828;28;20062;-66
2023/03/08 03:11:32;;;;;;;8.65;3.80;;;;;;;;;;4962098;28;20144;-65
2023/03/08 03:13:59;;;;;;;9.23;3.03;;;;;;;;;;4979660;28;20061;-64
2023/03/08 03:16:28;;;;;;;8.65;3.78;;;;;;;;;;4965066;28;20062;-66
2023/03/08 03:18:57;;;;;;;;;;;;;;;;;;4983411;28;20671;-66
2023/03/08 03:21:26;;;;;;;6.55;3.15;;;;;;;;;;4984368;28;20361;-66
2023/03/08 03:23:54;;;;;;;7.43;3.30;;;;;;;;;;4978374;28;20156;-65
2023/03/08 03:26:23;;;;;;;9.15;3.95;;;;;;;;;;4991821;28;20081;-64
2023/03/08 03:28:51;;;;;;;9.10;3.38;;;;;;;;;;4992507;28;21904;-65
2023/03/08 03:31:18;;;;;;;8.80;3.78;;;;;;;;;;4978651;28;20121;-65
2023/03/08 03:33:46;;;;;;;8.30;3.53;;;;;;;;;;4979368;28;20058;-66
2023/03/08 03:36:15;;;;;;;7.40;3.80;;;;;;;;;;5013472;28;20066;-66
2023/03/08 03:38:41;;;;;;;9.27;3.60;;;;;;;;;;4976504;28;20060;-66
2023/03/08 03:41:09;;;;;;;9.80;4.25;;;;;;;;;;4988672;28;20137;-65
2023/03/08 03:43:36;;;;;;;10.43;4.13;;;;;;;;;;4983320;28;20085;-66
2023/03/08 03:46:04;;;;;;;9.15;4.32;;;;;;;;;;4967527;28;20082;-66
2023/03/08 03:48:34;;;;;;;10.18;4.45;;;;;;;;;;4984002;28;20188;-66
2023/03/08 03:51:03;;;;;;;11.55;4.50;;;;;;;;;;4971303;28;20077;-66
2023/03/08 03:53:29;;;;;;;;;;;;;;;;;;4992811;28;20143;-66
2023/03/08 03:55:58;;;;;;;10.85;4.10;;;;;;;;;;4983724;28;19932;-66
2023/03/08 03:58:24;;;;;;;11.65;4.45;;;;;;;;;;4988916;28;20452;-67
2023/03/08 04:01:03;;;;;;;13.65;5.13;;;;;;;;;;4991683;28;20065;-66
2023/03/08 04:03:29;;;;;;;;;;;;;;;;;;4995271;28;20050;-67
2023/03/08 04:06:04;;;;;;;12.57;4.35;;;;;;;;;;4955997;28;19933;-65
2023/03/08 04:08:40;;;;;;;16.05;5.53;;;;;;;;;;4969627;28;20131;-66
2023/03/08 04:11:07;;;;;;;13.52;5.07;;;;;;;;;;4987485;28;20111;-66
2023/03/08 04:13:34;;;;;;;14.73;6.00;;;;;;;;;;4970830;28;20110;-66
2023/03/08 04:16:02;;;;;;;;;;;;;;;;;;4958451;28;20053;-66
2023/03/08 04:18:29;;;;;;;12.93;4.95;;;;;;;;;;4977627;28;19925;-66
2023/03/08 04:20:55;;;;;;;14.75;6.45;;;;;;;;;;4988893;28;20054;-66
2023/03/08 04:23:22;;;;;;;16.23;5.72;;;;;;;;;;4987874;28;20050;-66
2023/03/08 04:25:52;;;;;;;18.95;6.82;;;;;;;;;;4986931;28;20057;-67
2023/03/08 04:28:19;;;;;;;16.27;6.45;;;;;;;;;;4989647;28;20147;-66
2023/03/08 04:30:45;;;;;;;19.08;6.63;;;;;;;;;;4976480;28;20092;-66
2023/03/08 04:33:12;;;;;;;15.18;6.32;;;;;;;;;;4976213;28;20279;-67
2023/03/08 04:35:38;;;;;;;15.55;6.07;;;;;;;;;;4971344;28;20058;-66
2023/03/08 04:38:05;;;;;;;17.17;7.10;;;;;;;;;;5000167;28;20061;-66
2023/03/08 04:40:33;;;;;;;19.38;5.75;;;;;;;;;;4972872;28;20148;-66
2023/03/08 04:43:20;;;;;;;22.13;6.80;;;;;;;;;;4970204;28;20061;-66
2023/03/08 04:45:48;;;;;;;17.48;6.35;;;;;;;;;;4970748;28;20062;-67
2023/03/08 04:48:15;;;;;;;17.23;6.30;;;;;;;;;;5002081;28;20089;-67
2023/03/08 04:50:41;;;;;;;16.25;6.00;;;;;;;;;;5008384;28;20129;-67
2023/03/08 04:53:08;;;;;;;18.50;7.05;;;;;;;;;;4987008;28;20054;-67
2023/03/08 04:55:36;;;;;;;17.98;6.85;;;;;;;;;;4971388;28;20065;-67
2023/03/08 04:58:03;;;;;;;21.13;7.32;;;;;;;;;;4975539;28;20113;-66
2023/03/08 05:00:31;;;;;;;20.85;8.02;;;;;;;;;;4987565;28;20058;-67
2023/03/08 05:03:00;;;;;;;19.43;7.57;;;;;;;;;;4990461;28;20081;-68
2023/03/08 05:05:27;;;;;;;17.52;7.20;;;;;;;;;;4953859;28;20057;-67
2023/03/08 05:07:53;;;;;;;17.65;7.38;;;;;;;;;;4979723;28;20116;-67
2023/03/08 05:10:19;;;;;;;19.65;7.85;;;;;;;;;;4962510;28;20085;-67
2023/03/08 05:12:50;;;;;;;18.73;7.40;;;;;;;;;;4983449;28;20049;-67
2023/03/08 05:15:17;;;;;;;23.23;7.85;;;;;;;;;;4984750;28;20057;-66
2023/03/08 05:17:44;;;;;;;20.48;7.60;;;;;;;;;;4989997;28;20115;-67
2023/03/08 05:20:11;;;;;;;20.17;8.10;;;;;;;;;;5002474;28;20054;-66
2023/03/08 05:22:38;;;;;;;19.45;7.93;;;;;;;;;;4986515;28;20058;-67
2023/03/08 05:25:05;;;;;;;20.55;7.70;;;;;;;;;;4976012;28;20072;-67
2023/03/08 05:27:39;;;;;;;18.13;7.40;;;;;;;;;;4978800;28;20050;-67
2023/03/08 05:30:08;;;;;;;20.83;8.60;;;;;;;;;;4976246;28;20061;-66
2023/03/08 05:32:34;;;;;;;23.40;9.02;;;;;;;;;;4981865;28;20065;-67
2023/03/08 05:35:02;;;;;;;18.70;8.00;;;;;;;;;;4981318;28;20061;-66
2023/03/08 05:37:36;;;;;;;19.92;7.47;;;;;;;;;;4965828;28;20053;-66
2023/03/08 05:40:08;;;;;;;25.38;9.05;;;;;;;;;;4986634;28;20069;-66
2023/03/08 05:42:35;;;;;;;23.23;8.63;;;;;;;;;;4983398;28;20068;-66
2023/03/08 05:45:01;;;;;;;21.35;8.93;;;;;;;;;;4966940;28;20116;-66
2023/03/08 05:47:29;;;;;;;20.90;7.82;;;;;;;;;;5001427;28;20056;-66
2023/03/08 05:49:55;;;;;;;21.92;7.75;;;;;;;;;;4982473;28;20073;-67
2023/03/08 05:52:28;;;;;;;19.40;7.40;;;;;;;;;;4986174;28;20069;-67
2023/03/08 05:54:54;;;;;;;26.67;8.98;;;;;;;;;;4959963;28;20123;-64
2023/03/08 05:57:24;;;;;;;24.88;8.63;;;;;;;;;;4990440;28;20061;-65
2023/03/08 05:59:55;;;;;;;26.40;9.73;;;;;;;;;;4988135;28;20236;-66
2023/03/08 06:02:25;;;;;;;24.45;9.48;;;;;;;;;;4985918;28;20058;-66
2023/03/08 06:04:55;;;;;;;25.50;8.90;;;;;;;;;;4950058;28;20065;-66
2023/03/08 06:07:22;;;;;;;23.10;8.93;;;;;;;;;;4987813;28;20435;-66
2023/03/08 06:09:54;;;;;;;25.13;8.60;;;;;;;;;;4977617;28;20069;-66
2023/03/08 06:12:21;;;;;;;21.85;8.50;;;;;;;;;;4992638;28;20084;-69
2023/03/08 06:14:48;;;;;;;21.27;8.65;;;;;;;;;;4951942;28;20065;-65
2023/03/08 06:17:15;;;;;;;24.97;8.30;;;;;;;;;;4968352;28;20329;-66
2023/03/08 06:19:42;;;;;;;30.58;10.02;;;;;;;;;;4971039;28;20108;-65
2023/03/08 06:22:09;;;;;;;22.02;8.45;;;;;;;;;;4974125;28;20085;-66
2023/03/08 06:24:35;;;;;;;21.30;9.10;;;;;;;;;;4945813;28;20058;-66
2023/03/08 06:27:03;;;;;;;26.73;9.68;;;;;;;;;;4985436;28;20081;-67
2023/03/08 06:29:34;;;;;;;29.00;9.15;;;;;;;;;;4980174;28;20045;-66
2023/03/08 06:32:00;;;;;;;24.77;9.15;;;;;;;;;;4994862;28;20120;-66
2023/03/08 06:34:28;;;;;;;26.00;9.77;;;;;;;;;;4969819;28;20437;-67
2023/03/08 06:36:58;;;;;;;25.20;9.80;;;;;;;;;;4993104;28;20085;-67
2023/03/08 06:39:29;;;;;;;30.38;10.30;;;;;;;;;;4977502;28;20065;-67
2023/03/08 06:41:56;;;;;;;;;;;;;;;;;;4967992;28;20077;-67
2023/03/08 06:44:26;;;;;;;25.05;7.50;;;;;;;;;;4939776;28;19932;-65
2023/03/08 06:46:54;;;;;;;25.40;8.98;;;;;;;;;;4968608;28;20057;-65
2023/03/08 06:49:23;;;;;;;31.40;9.80;;;;;;;;;;4965008;28;20069;-65
2023/03/08 06:51:51;;;;;;;30.95;10.68;;;;;;;;;;4981365;28;20058;-66
2023/03/08 06:54:17;;;;;;;26.30;9.00;;;;;;;;;;5000492;28;20061;-66
2023/03/08 06:56:45;;;;;;;29.92;10.27;;;;;;;;;;4964927;28;20312;-65
2023/03/08 06:59:15;;;;;;;26.17;9.90;;;;;;;;;;4991439;28;20068;-66
2023/03/08 07:01:43;;;;;;;31.13;10.32;;;;;;;;;;4976064;28;20553;-65
2023/03/08 07:04:09;;;;;;;25.27;10.10;;;;;;;;;;4972555;28;20057;-66
2023/03/08 07:06:36;;;;;;;32.97;9.55;;;;;;;;;;4971710;28;20062;-66
2023/03/08 07:09:03;;;;;;;27.95;9.70;;;;;;;;;;4962835;28;20143;-65
2023/03/08 07:11:31;;;;;;;26.05;9.77;;;;;;;;;;4962824;28;20058;-66
2023/03/08 07:13:57;;;;;;;31.33;10.38;;;;;;;;;;4981868;28;20050;-66
2023/03/08 07:16:24;;;;;;;25.15;9.90;;;;;;;;;;4991516;28;20057;-66
2023/03/08 07:18:55;;;;;;;33.90;10.40;;;;;;;;;;4995500;28;20055;-66
2023/03/08 07:21:22;;;;;;;36.70;11.48;;;;;;;;;;5006593;28;20068;-67
2023/03/08 07:23:50;;;;;;;30.58;11.10;;;;;;;;;;4999111;28;20057;-67
2023/03/08 07:26:18;;;;;;;31.50;10.43;;;;;;;;;;4953410;28;20112;-66
2023/03/08 07:28:48;;;;;;;28.42;10.40;;;;;;;;;;4985469;28;20232;-67
2023/03/08 07:31:15;;;;;;;29.30;9.55;;;;;;;;;;4972119;28;20132;-66
2023/03/08 07:33:41;;;;;;;32.65;10.63;;;;;;;;;;4988479;28;20374;-67
2023/03/08 07:36:09;;;;;;;32.55;10.73;;;;;;;;;;4962900;28;20066;-67
2023/03/08 07:38:38;;;;;;;27.92;9.27;;;;;;;;;;4986769;28;20053;-67
2023/03/08 07:41:04;;;;;;;;;;;;;;;;;;4964094;28;20144;-67
2023/03/08 07:43:34;;;;;;;24.00;8.57;;;;;;;;;;4978432;28;19924;-67
2023/03/08 07:46:02;;;;;;;27.08;9.75;;;;;;;;;;4955139;28;20058;-68
2023/03/08 07:48:29;;;;;;;27.52;10.55;;;;;;;;;;4997036;28;20193;-68
2023/03/08 07:51:07;;;;;;;27.65;9.25;;;;;;;;;;5001891;28;20049;-68
2023/03/08 07:53:36;;;;;;;28.20;9.48;;;;;;;;;;4999626;28;20053;-68
2023/03/08 07:56:02;;;;;;;;;;;;;;;;;;4947603;28;20054;-68
2023/03/08 07:58:34;;;;;;;22.50;7.38;;;;;;;;;;4969365;28;19932;-68
2023/03/08 08:01:07;;;;;;;26.15;9.43;;;;;;;;;;5011502;28;20061;-68
2023/03/08 08:03:37;;;;;;;29.23;8.98;;;;;;;;;;4997583;28;20050;-68
2023/03/08 08:06:05;;;;;;;26.75;9.82;;;;;;;;;;4967853;28;20067;-68
2023/03/08 08:08:31;;;;;;;33.47;10.15;;;;;;;;;;4996464;28;20056;-68
2023/03/08 08:11:00;;;;;;;25.90;10.00;;;;;;;;;;4985113;28;20057;-68
2023/03/08 08:13:26;;;;;;;26.50;9.60;;;;;;;;;;4980039;28;20065;-68
2023/03/08 08:15:59;;;;;;;31.38;10.23;;;;;;;;;;4984479;28;20061;-69
2023/03/08 08:18:28;;;;;;;30.98;10.40;;;;;;;;;;4988665;28;20057;-68
2023/03/08 08:21:04;;;;;;;33.63;9.60;;;;;;;;;;4999527;28;20065;-69
2023/03/08 08:23:34;;;;;;;27.15;8.73;;;;;;;;;;4965106;28;20513;-68
2023/03/08 08:26:05;;;;;;;28.33;9.68;;;;;;;;;;4917873;28;20050;-69
2023/03/08 08:28:32;;;;;;;28.70;9.25;;;;;;;;;;4952477;28;20062;-68
2023/03/08 08:31:06;;;;;;;25.58;9.45;;;;;;;;;;4981625;28;20061;-69
2023/03/08 08:33:33;;;;;;;30.33;9.82;;;;;;;;;;5016662;28;20073;-68
2023/03/08 08:36:00;;;;;;;27.38;9.23;;;;;;;;;;4965930;28;20060;-68
2023/03/08 08:38:26;;;;;;;28.67;9.63;;;;;;;;;;5008282;28;20120;-68
2023/03/08 08:40:54;;;;;;;27.48;9.18;;;;;;;;;;4982459;28;20069;-68
2023/03/08 08:43:22;;;;;;;25.88;9.02;;;;;;;;;;4965668;28;20078;-68
2023/03/08 08:45:53;;;;;;;25.45;8.93;;;;;;;;;;4937139;28;20128;-68
2023/03/08 08:48:27;;;;;;;30.92;9.82;;;;;;;;;;4973164;28;20049;-67
2023/03/08 08:50:58;;;;;;;24.05;9.50;;;;;;;;;;4979513;28;20053;-67
2023/03/08 08:53:26;;;;;;;23.65;8.45;;;;;;;;;;4976752;28;20106;-67
2023/03/08 08:55:53;;;;;;;28.13;9.10;;;;;;;;;;4952001;28;20382;-69
2023/03/08 08:58:20;;;;;;;29.13;9.63;;;;;;;;;;4974403;28;20160;-68
2023/03/08 09:00:48;;;;;;;26.95;9.63;;;;;;;;;;4977393;28;20092;-67
2023/03/08 09:03:15;;;;;;;24.20;8.95;;;;;;;;;;4980124;28;20264;-68
2023/03/08 09:05:43;;;;;;;;;;;;;;;;;;4943309;28;20054;-70
2023/03/08 09:08:10;;;;;;;21.25;6.95;;;;;;;;;;4975793;28;19960;-67
2023/03/08 09:10:39;;;;;;;26.35;9.85;;;;;;;;;;4991348;28;20053;-68
2023/03/08 09:13:07;;;;;;;26.00;8.73;;;;;;;;;;4957079;28;20066;-68
2023/03/08 09:15:40;;;;;;;26.85;8.93;;;;;;;;;;4963893;28;20068;-67
2023/03/08 09:18:10;;;;;;;28.00;9.27;;;;;;;;;;4956938;28;20062;-68
2023/03/08 09:20:39;;;;;;;24.70;8.85;;;;;;;;;;4947134;28;20129;-68
2023/03/08 09:23:07;;;;;;;23.27;8.40;;;;;;;;;;4961371;28;20544;-68
2023/03/08 09:25:33;;;;;;;24.95;8.80;;;;;;;;;;4982686;28;20062;-69
2023/03/08 09:28:11;;;;;;;23.42;8.98;;;;;;;;;;4936814;28;20050;-68
2023/03/08 09:30:37;;;;;;;25.05;8.65;;;;;;;;;;5006177;28;20096;-68
2023/03/08 09:33:04;;;;;;;21.30;8.05;;;;;;;;;;4952215;28;20201;-69
2023/03/08 09:35:38;;;;;;;21.50;8.38;;;;;;;;;;4953179;28;20096;-68
2023/03/08 09:38:07;;;;;;;21.70;7.78;;;;;;;;;;4955751;28;20054;-69
2023/03/08 09:40:41;;;;;;;24.35;8.10;;;;;;;;;;4964641;28;20065;-68
2023/03/08 09:43:13;;;;;;;20.33;7.50;;;;;;;;;;4955615;28;20080;-69
2023/03/08 09:45:42;;;;;;;20.35;7.57;;;;;;;;;;4959397;28;20069;-69
2023/03/08 09:48:11;;;;;;;22.38;7.88;;;;;;;;;;4946278;28;20485;-68
2023/03/08 09:50:45;;;;;;;20.63;8.00;;;;;;;;;;4977981;28;20053;-67
2023/03/08 09:53:19;;;;;;;23.80;7.28;;;;;;;;;;4955320;28;20161;-69
2023/03/08 09:55:48;;;;;;;18.30;7.65;;;;;;;;;;4957583;28;20146;-68
2023/03/08 09:58:21;;;;;;;21.48;7.50;;;;;;;;;;4964235;28;20245;-69
2023/03/08 10:00:48;;;;;;;18.02;7.05;;;;;;;;;;4949545;28;20129;-68
2023/03/08 10:03:29;;;;;;;20.70;6.78;;;;;;;;;;4972640;28;20166;-69
2023/03/08 10:06:04;;;;;;;15.00;5.95;;;;;;;;;;4963606;28;20085;-68
2023/03/08 10:08:35;;;;;;;17.67;5.78;;;;;;;;;;4976499;28;20092;-68
2023/03/08 10:11:06;;;;;;;16.27;6.25;;;;;;;;;;4981519;28;20098;-68
2023/03/08 10:13:33;;;;;;;18.42;7.22;;;;;;;;;;4961773;28;20053;-68
2023/03/08 10:16:11;;;;;;;15.02;6.05;;;;;;;;;;4956111;28;20061;-68
2023/03/08 10:18:48;;;;;;;17.73;6.30;;;;;;;;;;4997521;28;20058;-69
2023/03/08 10:21:18;;;;;;;17.38;6.70;;;;;;;;;;4954731;28;20054;-69
2023/03/08 10:23:50;;;;;;;16.15;6.15;;;;;;;;;;4972508;28;20153;-69
2023/03/08 10:26:17;;;;;;;15.48;6.30;;;;;;;;;;4966432;28;20049;-69
2023/03/08 10:28:46;;;;;;;17.63;6.28;;;;;;;;;;4979158;28;20057;-68
2023/03/08 10:31:20;;;;;;;13.50;5.70;;;;;;;;;;4960547;28;20116;-67
2023/03/08 10:33:48;;;;;;;14.45;5.45;;;;;;;;;;4975758;28;20147;-67
2023/03/08 10:36:22;;;;;;;18.47;6.63;;;;;;;;;;4974537;28;20135;-68
2023/03/08 10:39:00;;;;;;;15.80;5.78;;;;;;;;;;4988734;28;20305;-68
2023/03/08 10:41:31;;;;;;;18.02;5.40;;;;;;;;;;4986620;28;20200;-68
2023/03/08 10:43:58;;;;;;;15.93;5.30;;;;;;;;;;4998021;28;20068;-68
2023/03/08 10:46:29;;;;;;;15.93;5.20;;;;;;;;;;4962891;28;20060;-67
2023/03/08 10:49:06;;;;;;;16.08;5.53;;;;;;;;;;4982902;28;20097;-67
2023/03/08 10:51:38;;;;;;;15.75;5.53;;;;;;;;;;4998592;28;20176;-68
2023/03/08 10:54:17;;;;;;;11.90;4.82;;;;;;;;;;4990892;28;20350;-67
2023/03/08 10:56:51;;;;;;;14.68;4.70;;;;;;;;;;4952430;28;20062;-68
2023/03/08 10:59:20;;;;;;;13.82;5.20;;;;;;;;;;4979748;28;20071;-68
2023/03/08 11:01:48;;;;;;;14.18;5.15;;;;;;;;;;4995533;28;20061;-67
2023/03/08 11:04:16;;;;;;;12.63;5.18;;;;;;;;;;4990493;28;20044;-69
2023/03/08 11:06:44;;;;;;;18.87;5.23;;;;;;;;;;4955648;28;20086;-66
2023/03/08 11:09:24;;;;;;;14.07;4.97;;;;;;;;;;4978873;28;20403;-68
2023/03/08 11:11:52;;;;;;;13.63;5.32;;;;;;;;;;4964757;28;20113;-67
2023/03/08 11:14:22;;;;;;;14.57;5.18;;;;;;;;;;4967198;28;20050;-68
2023/03/08 11:16:51;;;;;;;12.60;4.90;;;;;;;;;;4947464;28;20061;-68
2023/03/08 11:19:31;;;;;;;11.93;4.55;;;;;;;;;;4960109;28;20065;-68
2023/03/08 11:22:03;;;;;;;15.15;5.18;;;;;;;;;;5012354;28;20125;-68
2023/03/08 11:24:41;;;;;;;16.73;5.13;;;;;;;;;;4978633;28;20057;-68
2023/03/08 11:27:19;;;;;;;10.43;4.57;;;;;;;;;;4941517;28;20065;-67
2023/03/08 11:29:53;;;;;;;14.13;5.22;;;;;;;;;;4992228;28;20057;-68
2023/03/08 11:32:29;;;;;;;14.73;4.88;;;;;;;;;;4973713;28;20109;-68
2023/03/08 11:35:11;;;;;;;13.65;5.65;;;;;;;;;;4982853;28;20108;-68
2023/03/08 11:37:46;;;;;;;14.13;5.05;;;;;;;;;;4965088;28;20045;-67
2023/03/08 11:40:21;;;;;;;12.10;4.82;;;;;;;;;;5008864;28;20049;-67
2023/03/08 11:42:57;;;;;;;13.82;5.22;;;;;;;;;;4976745;28;20042;-66
2023/03/08 11:45:26;;;;;;;13.57;4.80;;;;;;;;;;4969381;28;21248;-67
2023/03/08 11:48:11;;;;;;;12.95;4.82;;;;;;;;;;4960453;28;20054;-67
2023/03/08 11:50:40;;;;;;;13.52;5.07;;;;;;;;;;4972126;28;20078;-67
2023/03/08 11:53:20;;;;;;;12.63;5.20;;;;;;;;;;4918428;28;20473;-67
2023/03/08 11:55:56;;;;;;;12.15;5.05;;;;;;;;;;4980233;28;20054;-66
2023/03/08 11:58:27;;;;;;;14.93;5.35;;;;;;;;;;4937126;28;20164;-67
2023/03/08 12:00:57;;;;;;;10.07;4.47;;;;;;;;;;4995749;28;20281;-68
2023/03/08 12:03:28;;;;;;;13.63;4.65;;;;;;;;;;4985213;28;20209;-67
2023/03/08 12:05:55;;;;;;;12.60;4.82;;;;;;;;;;5004292;28;20448;-66
2023/03/08 12:08:25;;;;;;;13.68;5.22;;;;;;;;;;4988095;28;20054;-67
2023/03/08 12:10:56;;;;;;;11.75;4.55;;;;;;;;;;5002465;28;20055;-67
2023/03/08 12:13:32;;;;;;;11.48;4.68;;;;;;;;;;4975744;28;20143;-67
2023/03/08 12:16:11;;;;;;;12.98;4.35;;;;;;;;;;5002293;28;20069;-68
2023/03/08 12:18:40;;;;;;;11.98;4.63;;;;;;;;;;4994335;28;20061;-69
2023/03/08 12:21:23;;;;;;;15.23;5.72;;;;;;;;;;4998506;28;20079;-70
2023/03/08 12:23:57;;;;;;;12.10;4.43;;;;;;;;;;4986501;28;20178;-68
2023/03/08 12:26:26;;;;;;;12.73;4.68;;;;;;;;;;4973344;28;20062;-70
2023/03/08 12:28:57;;;;;;;11.73;4.30;;;;;;;;;;4939467;28;20054;-70
2023/03/08 12:31:33;;;;;;;13.85;4.63;;;;;;;;;;4977200;28;20128;-69
2023/03/08 12:34:00;;;;;;;13.45;4.82;;;;;;;;;;4982285;28;20053;-69
2023/03/08 12:36:37;;;;;;;13.80;4.85;;;;;;;;;;4938377;28;20070;-70
2023/03/08 12:39:21;;;;;;;13.23;4.53;;;;;;;;;;4906139;28;20061;-70
2023/03/08 12:42:04;;;;;;;8.77;3.97;;;;;;;;;;4903935;29;20055;-69
2023/03/08 12:44:31;;;;;;;13.00;5.07;;;;;;;;;;4871060;28;20074;-69
2023/03/08 12:47:05;;;;;;;13.23;5.20;;;;;;;;;;4893520;28;20051;-70
2023/03/08 12:49:35;;;;;;;14.50;4.82;;;;;;;;;;4960716;28;20061;-70
2023/03/08 12:52:05;;;;;;;14.43;5.30;;;;;;;;;;4959866;28;20125;-68
2023/03/08 12:54:36;;;;;;;15.00;5.80;;;;;;;;;;4994542;28;20056;-69
2023/03/08 12:57:23;;;;;;;15.10;5.80;;;;;;;;;;4932374;28;20046;-68
2023/03/08 12:59:55;;;;;;;12.63;5.05;;;;;;;;;;4977926;28;20053;-68
2023/03/08 13:02:39;;;;;;;15.50;5.78;;;;;;;;;;4969336;28;20077;-68
2023/03/08 13:05:18;;;;;;;12.68;4.82;;;;;;;;;;4995631;28;20046;-67
2023/03/08 13:07:55;;;;;;;13.35;5.07;;;;;;;;;;4957954;28;20059;-67
2023/03/08 13:10:23;;;;;;;12.88;5.43;;;;;;;;;;4987649;28;20049;-67
2023/03/08 13:13:11;;;;;;;16.05;5.65;;;;;;;;;;4975195;28;20085;-68
2023/03/08 13:15:46;;;;;;;14.95;5.47;;;;;;;;;;4968280;28;20054;-67
2023/03/08 13:18:18;;;;;;;17.80;5.88;;;;;;;;;;4895721;28;20051;-68
2023/03/08 13:21:05;;;;;;;14.85;5.22;;;;;;;;;;4941294;28;20058;-67
2023/03/08 13:23:35;;;;;;;12.03;4.53;;;;;;;;;;4924739;28;20054;-67
2023/03/08 13:26:12;;;;;;;14.32;4.97;;;;;;;;;;4945067;28;20046;-69
2023/03/08 13:28:40;;;;;;;12.70;4.75;;;;;;;;;;4958845;28;20050;-68
2023/03/08 13:31:14;;;;;;;13.82;5.18;;;;;;;;;;4988099;28;20057;-68
2023/03/08 13:33:41;;;;;;;11.57;4.32;;;;;;;;;;4969903;28;20061;-68
2023/03/08 13:36:15;;;;;;;11.50;4.33;;;;;;;;;;4977856;28;20136;-68
2023/03/08 13:38:41;;;;;;;9.30;4.22;;;;;;;;;;4955572;28;20054;-69
2023/03/08 13:41:08;;;;;;;13.73;5.03;;;;;;;;;;4972890;28;20049;-68
2023/03/08 13:43:41;;;;;;;11.60;4.65;;;;;;;;;;4965069;28;20112;-67
2023/03/08 13:46:14;;;;;;;11.48;4.50;;;;;;;;;;4976715;28;20057;-67
2023/03/08 13:48:43;;;;;;;12.65;4.15;;;;;;;;;;4943889;28;20065;-69
2023/03/08 13:51:15;;;;;;;12.23;4.70;;;;;;;;;;4960735;28;20072;-68
2023/03/08 13:53:47;;;;;;;9.80;4.07;;;;;;;;;;4989816;28;20053;-67
2023/03/08 13:56:21;;;;;;;9.90;4.13;;;;;;;;;;4975179;28;20057;-67
2023/03/08 13:58:53;;;;;;;11.70;3.97;;;;;;;;;;4948553;28;20049;-68
2023/03/08 14:01:25;;;;;;;10.23;3.70;;;;;;;;;;5004097;28;20049;-67
2023/03/08 14:03:54;;;;;;;10.40;4.25;;;;;;;;;;4981225;28;20092;-67
2023/03/08 14:06:20;;;;;;;;;;;;;;;;;;4982316;28;20061;-68
2023/03/08 14:08:47;;;;;;;9.00;3.53;;;;;;;;;;4964202;28;19968;-67
2023/03/08 14:11:15;;;;;;;10.02;3.97;;;;;;;;;;4995224;28;20393;-67
2023/03/08 14:13:45;;;;;;;9.20;3.47;;;;;;;;;;4990580;28;20065;-67
2023/03/08 14:16:23;;;;;;;10.65;3.80;;;;;;;;;;4957998;28;20141;-67
2023/03/08 14:18:50;;;;;;;6.78;2.85;;;;;;;;;;4967445;28;20054;-66
2023/03/08 14:21:29;;;;;;;9.45;3.60;;;;;;;;;;4948947;28;20271;-67
2023/03/08 14:23:57;;;;;;;9.00;3.30;;;;;;;;;;4972613;28;20058;-66
2023/03/08 14:26:25;;;;;;;7.55;3.05;;;;;;;;;;4957726;28;20065;-67
2023/03/08 14:29:04;;;;;;;11.48;3.83;;;;;;;;;;4944322;28;20461;-67
2023/03/08 14:31:30;;;;;;;;;;;;;;;;;;4977448;28;20515;-67
2023/03/08 14:33:57;;;;;;;8.10;3.22;;;;;;;;;;4993683;28;19933;-67
2023/03/08 14:36:31;;;;;;;9.73;3.97;;;;;;;;;;5009477;28;20062;-67
2023/03/08 14:39:01;;;;;;;7.82;2.90;;;;;;;;;;4963838;28;20058;-67
2023/03/08 14:41:31;;;;;;;9.27;3.13;;;;;;;;;;4992611;28;20071;-67
2023/03/08 14:44:00;;;;;;;10.27;3.67;;;;;;;;;;4980292;28;20065;-68
2023/03/08 14:46:29;;;;;;;;;;;;;;;;;;4972877;28;20057;-67
2023/03/08 14:49:00;;;;;;;10.60;2.78;;;;;;;;;;4968409;28;19969;-68
2023/03/08 14:51:39;;;;;;;8.27;3.13;;;;;;;;;;4980588;28;20193;-66